sensor_id;sensor_type;location;lat;lon;timestamp;P1;durP1;ratioP1;P2;durP2;ratioP2
3831;SDS011;12460;42.662;23.288;2023-04-15T00:02:35;9.60;;;7.13;;
3831;SDS011;12460;42.662;23.288;2023-04-15T00:17:41;9.27;;;8.27;;
3831;SDS011;12460;42.662;23.288;2023-04-15T00:32:46;8.43;;;7.03;;
3831;SDS011;12460;42.662;23.288;2023-04-15T00:47:56;6.87;;;5.73;;
3831;SDS011;12460;42.662;23.288;2023-04-15T01:03:01;8.90;;;6.40;;
3831;SDS011;12460;42.662;23.288;2023-04-15T01:18:05;9.50;;;5.57;;
3831;SDS011;12460;42.662;23.288;2023-04-15T01:33:12;6.50;;;5.73;;
3831;SDS011;12460;42.662;23.288;2023-04-15T01:48:17;8.20;;;6.33;;
3831;SDS011;12460;42.662;23.288;2023-04-15T02:03:22;5.70;;;4.00;;
3831;SDS011;12460;42.662;23.288;2023-04-15T02:18:28;5.47;;;3.90;;
3831;SDS011;12460;42.662;23.288;2023-04-15T02:33:32;4.80;;;3.60;;
3831;SDS011;12460;42.662;23.288;2023-04-15T02:48:37;7.90;;;5.50;;
3831;SDS011;12460;42.662;23.288;2023-04-15T03:03:41;6.73;;;4.20;;
3831;SDS011;12460;42.662;23.288;2023-04-15T03:18:46;7.40;;;6.60;;
3831;SDS011;12460;42.662;23.288;2023-04-15T03:33:51;7.50;;;6.40;;
3831;SDS011;12460;42.662;23.288;2023-04-15T03:48:56;7.60;;;6.83;;
3831;SDS011;12460;42.662;23.288;2023-04-15T04:04:01;8.50;;;7.07;;
3831;SDS011;12460;42.662;23.288;2023-04-15T04:19:06;9.23;;;7.67;;
3831;SDS011;12460;42.662;23.288;2023-04-15T04:34:10;7.67;;;6.83;;
3831;SDS011;12460;42.662;23.288;2023-04-15T04:49:15;8.60;;;7.30;;
3831;SDS011;12460;42.662;23.288;2023-04-15T05:04:19;8.80;;;7.90;;
3831;SDS011;12460;42.662;23.288;2023-04-15T05:19:24;13.00;;;10.77;;
3831;SDS011;12460;42.662;23.288;2023-04-15T05:34:29;10.70;;;8.50;;
3831;SDS011;12460;42.662;23.288;2023-04-15T05:49:33;8.63;;;7.73;;
3831;SDS011;12460;42.662;23.288;2023-04-15T06:04:38;8.27;;;7.50;;
3831;SDS011;12460;42.662;23.288;2023-04-15T06:19:42;8.03;;;7.17;;
3831;SDS011;12460;42.662;23.288;2023-04-15T06:34:47;7.10;;;6.40;;
3831;SDS011;12460;42.662;23.288;2023-04-15T06:49:50;7.87;;;7.03;;
3831;SDS011;12460;42.662;23.288;2023-04-15T07:04:56;9.07;;;8.17;;
3831;SDS011;12460;42.662;23.288;2023-04-15T07:20:00;9.67;;;6.90;;
3831;SDS011;12460;42.662;23.288;2023-04-15T07:35:04;6.53;;;5.73;;
3831;SDS011;12460;42.662;23.288;2023-04-15T07:50:09;6.00;;;5.20;;
3831;SDS011;12460;42.662;23.288;2023-04-15T08:05:14;4.70;;;4.30;;
3831;SDS011;12460;42.662;23.288;2023-04-15T08:20:18;4.13;;;3.83;;
3831;SDS011;12460;42.662;23.288;2023-04-15T08:35:23;3.70;;;3.40;;
3831;SDS011;12460;42.662;23.288;2023-04-15T08:50:28;2.17;;;2.07;;
3831;SDS011;12460;42.662;23.288;2023-04-15T09:05:35;1.93;;;1.83;;
3831;SDS011;12460;42.662;23.288;2023-04-15T09:20:40;1.50;;;1.40;;
3831;SDS011;12460;42.662;23.288;2023-04-15T09:36:03;1.13;;;1.10;;
3831;SDS011;12460;42.662;23.288;2023-04-15T09:51:09;1.93;;;1.77;;
3831;SDS011;12460;42.662;23.288;2023-04-15T10:06:14;4.23;;;3.93;;
3831;SDS011;12460;42.662;23.288;2023-04-15T10:21:17;6.80;;;4.70;;
3831;SDS011;12460;42.662;23.288;2023-04-15T10:36:25;2.50;;;2.30;;
3831;SDS011;12460;42.662;23.288;2023-04-15T10:51:30;1.53;;;1.43;;
3831;SDS011;12460;42.662;23.288;2023-04-15T11:06:43;2.03;;;1.83;;
3831;SDS011;12460;42.662;23.288;2023-04-15T11:21:48;1.50;;;1.40;;
3831;SDS011;12460;42.662;23.288;2023-04-15T11:36:52;2.07;;;1.97;;
3831;SDS011;12460;42.662;23.288;2023-04-15T11:52:01;2.23;;;1.83;;
3831;SDS011;12460;42.662;23.288;2023-04-15T12:07:15;2.17;;;2.07;;
3831;SDS011;12460;42.662;23.288;2023-04-15T12:22:20;2.17;;;1.80;;
3831;SDS011;12460;42.662;23.288;2023-04-15T12:37:25;1.90;;;1.80;;
3831;SDS011;12460;42.662;23.288;2023-04-15T12:52:30;2.20;;;1.90;;
3831;SDS011;12460;42.662;23.288;2023-04-15T13:07:34;1.20;;;1.20;;
3831;SDS011;12460;42.662;23.288;2023-04-15T13:22:39;3.20;;;1.87;;
3831;SDS011;12460;42.662;23.288;2023-04-15T13:37:45;2.60;;;1.80;;
3831;SDS011;12460;42.662;23.288;2023-04-15T13:52:50;1.90;;;1.60;;
3831;SDS011;12460;42.662;23.288;2023-04-15T14:07:55;2.50;;;1.57;;
3831;SDS011;12460;42.662;23.288;2023-04-15T14:22:59;1.70;;;1.60;;
3831;SDS011;12460;42.662;23.288;2023-04-15T14:38:03;1.10;;;1.00;;
3831;SDS011;12460;42.662;23.288;2023-04-15T14:53:14;1.70;;;1.60;;
3831;SDS011;12460;42.662;23.288;2023-04-15T15:08:18;1.57;;;1.40;;
3831;SDS011;12460;42.662;23.288;2023-04-15T15:23:22;1.60;;;1.50;;
3831;SDS011;12460;42.662;23.288;2023-04-15T15:38:26;2.50;;;1.70;;
3831;SDS011;12460;42.662;23.288;2023-04-15T15:53:30;2.00;;;1.70;;
3831;SDS011;12460;42.662;23.288;2023-04-15T16:08:33;1.40;;;1.27;;
3831;SDS011;12460;42.662;23.288;2023-04-15T16:23:38;2.60;;;1.83;;
3831;SDS011;12460;42.662;23.288;2023-04-15T16:38:42;1.93;;;1.83;;
3831;SDS011;12460;42.662;23.288;2023-04-15T16:53:50;2.40;;;2.10;;
3831;SDS011;12460;42.662;23.288;2023-04-15T17:08:56;2.10;;;1.90;;
3831;SDS011;12460;42.662;23.288;2023-04-15T17:24:00;2.07;;;1.80;;
3831;SDS011;12460;42.662;23.288;2023-04-15T17:39:05;2.90;;;1.93;;
3831;SDS011;12460;42.662;23.288;2023-04-15T17:54:10;3.60;;;3.00;;
3831;SDS011;12460;42.662;23.288;2023-04-15T18:09:15;4.30;;;3.10;;
3831;SDS011;12460;42.662;23.288;2023-04-15T18:24:19;3.20;;;2.90;;
3831;SDS011;12460;42.662;23.288;2023-04-15T18:39:25;3.90;;;3.60;;
3831;SDS011;12460;42.662;23.288;2023-04-15T18:54:30;5.70;;;4.17;;
3831;SDS011;12460;42.662;23.288;2023-04-15T19:09:35;4.10;;;3.77;;
3831;SDS011;12460;42.662;23.288;2023-04-15T19:24:40;9.13;;;6.03;;
3831;SDS011;12460;42.662;23.288;2023-04-15T19:39:44;11.30;;;8.60;;
3831;SDS011;12460;42.662;23.288;2023-04-15T19:54:48;8.03;;;6.50;;
3831;SDS011;12460;42.662;23.288;2023-04-15T20:09:51;10.03;;;6.77;;
3831;SDS011;12460;42.662;23.288;2023-04-15T20:24:55;11.70;;;7.03;;
3831;SDS011;12460;42.662;23.288;2023-04-15T20:40:00;7.90;;;7.10;;
3831;SDS011;12460;42.662;23.288;2023-04-15T20:55:05;8.30;;;6.43;;
3831;SDS011;12460;42.662;23.288;2023-04-15T21:10:10;6.60;;;5.63;;
3831;SDS011;12460;42.662;23.288;2023-04-15T21:25:14;9.40;;;6.10;;
3831;SDS011;12460;42.662;23.288;2023-04-15T21:40:18;12.30;;;8.67;;
3831;SDS011;12460;42.662;23.288;2023-04-15T21:55:22;8.87;;;7.60;;
3831;SDS011;12460;42.662;23.288;2023-04-15T22:10:27;10.47;;;7.27;;
3831;SDS011;12460;42.662;23.288;2023-04-15T22:25:31;9.87;;;6.67;;
3831;SDS011;12460;42.662;23.288;2023-04-15T22:40:36;5.10;;;4.20;;
3831;SDS011;12460;42.662;23.288;2023-04-15T22:55:44;3.50;;;3.20;;
3831;SDS011;12460;42.662;23.288;2023-04-15T23:10:52;4.20;;;3.80;;
3831;SDS011;12460;42.662;23.288;2023-04-15T23:25:56;4.53;;;4.13;;
3831;SDS011;12460;42.662;23.288;2023-04-15T23:41:01;4.90;;;4.40;;
3831;SDS011;12460;42.662;23.288;2023-04-15T23:56:05;4.57;;;4.17;;
